Time;durP1;ratioP1;P1;durP2;ratioP2;P2;SDS_P1;SDS_P2;PMS_P1;PMS_P2;Temp;Humidity;BMP_temperature;BMP_pressure;BME280_temperature;BME280_humidity;BME280_pressure;Samples;Min_cycle;Max_cycle;Signal;HPM_P1;HPM_P2
2021/12/12 00:02:12;;;;;;;23.77;11.70;;;;;;;-145.45;100.00;62759.84;5245727;28;20018;-91
2021/12/12 00:04:46;;;;;;;21.73;11.38;;;;;;;-145.45;100.00;62759.84;5257135;28;20084;-91
2021/12/12 00:07:24;;;;;;;29.15;11.13;;;;;;;-145.45;100.00;62759.84;5257488;28;20049;-92
2021/12/12 00:10:04;;;;;;;32.38;10.23;;;;;;;-145.45;100.00;62759.84;5267265;28;20036;-91
2021/12/12 00:12:41;;;;;;;26.92;11.15;;;;;;;-145.45;100.00;62759.84;5243455;28;20530;-91
2021/12/12 00:15:15;;;;;;;25.98;10.48;;;;;;;-145.45;100.00;62759.84;5239691;28;20006;-92
2021/12/12 00:17:47;;;;;;;27.15;11.13;;;;;;;-145.45;100.00;62759.84;5248762;28;20018;-92
2021/12/12 00:20:26;;;;;;;26.70;10.63;;;;;;;-145.45;100.00;62759.84;5225931;28;20044;-92
2021/12/12 00:23:01;;;;;;;24.27;9.45;;;;;;;-145.45;100.00;62759.84;5243419;28;20036;-91
2021/12/12 00:25:43;;;;;;;25.55;10.52;;;;;;;-145.45;100.00;62759.84;5224672;28;20042;-92
2021/12/12 00:28:19;;;;;;;26.92;10.35;;;;;;;-145.45;100.00;62759.84;5225317;28;20030;-91
2021/12/12 00:30:53;;;;;;;29.40;10.50;;;;;;;-145.45;100.00;62759.84;5243301;28;20030;-91
2021/12/12 00:33:26;;;;;;;29.80;10.50;;;;;;;-145.45;100.00;62759.84;5243627;28;20041;-92
2021/12/12 00:36:01;;;;;;;27.90;9.98;;;;;;;-145.45;100.00;62759.84;5224321;28;20041;-92
2021/12/12 00:39:02;;;;;;;25.97;10.90;;;;;;;-145.45;100.00;62759.84;5225376;28;20391;-90
2021/12/12 00:41:50;;;;;;;28.02;10.35;;;;;;;-145.45;100.00;62759.84;5222977;28;20288;-90
2021/12/12 00:44:24;;;;;;;27.30;9.52;;;;;;;-145.45;100.00;62759.84;5220929;28;20125;-90
2021/12/12 00:47:00;;;;;;;26.13;9.60;;;;;;;-145.45;100.00;62759.84;5222097;28;20018;-90
2021/12/12 00:49:35;;;;;;;23.08;10.07;;;;;;;-145.45;100.00;62759.84;5222768;28;20048;-90
2021/12/12 00:52:10;;;;;;;27.10;10.13;;;;;;;-145.45;100.00;62759.84;5240754;28;20034;-91
2021/12/12 00:54:43;;;;;;;27.58;10.52;;;;;;;-145.45;100.00;62759.84;5222889;28;20920;-90
2021/12/12 00:57:17;;;;;;;25.58;9.57;;;;;;;-145.45;100.00;62759.84;5240862;28;20163;-90
2021/12/12 00:59:48;;;;;;;25.70;10.35;;;;;;;-145.45;100.00;62759.84;5222190;28;20033;-90
2021/12/12 01:02:25;;;;;;;29.15;10.77;;;;;;;-145.45;100.00;62759.84;5243304;28;20475;-89
2021/12/12 01:05:00;;;;;;;30.10;10.48;;;;;;;-145.45;100.00;62759.84;5240673;28;20037;-90
2021/12/12 01:07:38;;;;;;;27.38;10.90;;;;;;;-145.45;100.00;62759.84;5248210;28;20402;-89
2021/12/12 01:10:42;;;;;;;28.65;10.85;;;;;;;-145.45;100.00;62759.84;5243740;28;20466;-90
2021/12/12 01:13:14;;;;;;;38.80;11.23;;;;;;;-145.45;100.00;62759.84;5239913;28;20104;-91
2021/12/12 01:15:51;;;;;;;30.92;11.38;;;;;;;-145.45;100.00;62759.84;5247952;28;20096;-90
2021/12/12 01:18:29;;;;;;;29.05;12.55;;;;;;;-145.45;100.00;62759.84;5247213;28;20076;-90
2021/12/12 01:21:13;;;;;;;29.48;11.23;;;;;;;-145.45;100.00;62759.84;5256488;28;20029;-91
2021/12/12 01:23:53;;;;;;;26.73;11.02;;;;;;;-145.45;100.00;62759.84;5255705;28;20029;-90
2021/12/12 01:26:28;;;;;;;27.20;11.65;;;;;;;-145.45;100.00;62759.84;5253643;28;20039;-90
2021/12/12 01:29:01;;;;;;;35.80;11.38;;;;;;;-145.45;100.00;62759.84;5263646;28;20371;-91
2021/12/12 01:31:36;;;;;;;34.28;11.40;;;;;;;-145.45;100.00;62759.84;5263458;28;20029;-90
2021/12/12 01:34:12;;;;;;;27.45;12.35;;;;;;;-145.45;100.00;62759.84;5247779;28;20447;-90
2021/12/12 01:37:05;;;;;;;32.70;11.73;;;;;;;-145.45;100.00;62759.84;5265790;28;20029;-91
2021/12/12 01:39:40;;;;;;;32.55;12.80;;;;;;;-145.45;100.00;62759.84;5262690;28;20466;-90
2021/12/12 01:42:17;;;;;;;29.27;12.35;;;;;;;-145.45;100.00;62759.84;5269182;28;20035;-90
2021/12/12 01:44:57;;;;;;;32.45;12.52;;;;;;;-145.45;100.00;62759.84;5268695;28;20084;-89
2021/12/12 01:47:37;;;;;;;30.35;12.63;;;;;;;-145.45;100.00;62759.84;5257352;28;20033;-91
2021/12/12 01:50:18;;;;;;;37.78;12.30;;;;;;;-145.45;100.00;62759.84;5270593;28;20025;-91
2021/12/12 01:52:51;;;;;;;38.40;12.50;;;;;;;-145.45;100.00;62759.84;5266878;28;20371;-90
2021/12/12 01:55:33;;;;;;;29.85;12.82;;;;;;;-145.45;100.00;62759.84;5267137;28;20032;-91
2021/12/12 01:58:15;;;;;;;29.67;12.90;;;;;;;-145.45;100.00;62759.84;5228205;28;20029;-90
2021/12/12 02:01:09;;;;;;;29.13;13.30;;;;;;;-145.45;100.00;62759.84;5263919;28;20488;-90
2021/12/12 02:03:45;;;;;;;32.90;13.43;;;;;;;-145.45;100.00;62759.84;5264328;28;20056;-90
2021/12/12 02:06:19;;;;;;;31.05;12.43;;;;;;;-145.45;100.00;62759.84;5262182;28;20029;-90
2021/12/12 02:08:56;;;;;;;32.78;12.65;;;;;;;-145.45;100.00;62759.84;5263806;28;20129;-90
2021/12/12 02:11:29;;;;;;;;;;;;;;;-145.45;100.00;62759.84;5264226;28;20044;-90
2021/12/12 02:14:11;;;;;;;30.27;12.73;;;;;;;-145.45;100.00;62759.84;5248351;28;19967;-90
2021/12/12 02:16:52;;;;;;;35.13;13.00;;;;;;;-145.45;100.00;62759.84;5264591;28;20041;-91
2021/12/12 02:20:02;;;;;;;30.27;13.02;;;;;;;-145.45;100.00;62759.84;5250834;28;20033;-91
2021/12/12 02:22:36;;;;;;;32.95;12.32;;;;;;;-145.45;100.00;62759.84;5277229;28;20033;-90
2021/12/12 02:36:47;;;;;;;33.75;12.38;;;;;;;-145.45;100.00;62759.84;5268452;28;20025;-92
2021/12/12 02:39:18;;;;;;;31.05;11.48;;;;;;;-145.45;100.00;62759.84;5265524;28;20025;-91
2021/12/12 02:41:56;;;;;;;27.23;11.00;;;;;;;-145.45;100.00;62759.84;5279187;28;20017;-90
2021/12/12 02:44:31;;;;;;;31.83;11.55;;;;;;;-145.45;100.00;62759.84;5272829;28;20101;-91
2021/12/12 02:47:12;;;;;;;31.92;10.80;;;;;;;-145.45;100.00;62759.84;5292531;28;20025;-91
2021/12/12 02:52:27;;;;;;;36.25;12.43;;;;;;;-145.45;100.00;62759.84;5287578;28;20034;-91
2021/12/12 02:55:19;;;;;;;30.77;12.40;;;;;;;-145.45;100.00;62759.84;5262227;28;20120;-91
2021/12/12 02:57:56;;;;;;;36.10;11.93;;;;;;;-145.45;100.00;62759.84;5246396;28;20426;-91
2021/12/12 03:00:31;;;;;;;31.92;12.75;;;;;;;-145.45;100.00;62759.84;5265544;28;20022;-91
2021/12/12 03:03:08;;;;;;;33.25;13.27;;;;;;;-145.45;100.00;62759.84;5259292;28;20529;-91
2021/12/12 03:05:47;;;;;;;33.63;12.32;;;;;;;-145.45;100.00;62759.84;5265777;28;20483;-91
2021/12/12 03:08:24;;;;;;;36.72;13.50;;;;;;;-145.45;100.00;62759.84;5266300;28;20398;-91
2021/12/12 03:10:56;;;;;;;41.47;14.13;;;;;;;-145.45;100.00;62759.84;5249187;28;20029;-92
2021/12/12 03:13:27;;;;;;;44.90;15.60;;;;;;;-145.45;100.00;62759.84;5253627;28;20025;-92
2021/12/12 03:15:59;;;;;;;38.55;13.88;;;;;;;-145.45;100.00;62759.84;5249787;28;20053;-92
2021/12/12 03:18:39;;;;;;;37.10;15.15;;;;;;;-145.45;100.00;62759.84;5264289;28;20029;-91
2021/12/12 03:21:30;;;;;;;34.10;14.20;;;;;;;-145.45;100.00;62759.84;5259345;28;20022;-91
2021/12/12 03:24:08;;;;;;;34.42;13.00;;;;;;;-145.45;100.00;62759.84;5228597;28;20517;-92
2021/12/12 03:26:44;;;;;;;34.80;14.38;;;;;;;-145.45;100.00;62759.84;5263250;28;20032;-92
2021/12/12 03:29:16;;;;;;;39.90;15.07;;;;;;;-145.45;100.00;62759.84;5250946;28;20107;-92
2021/12/12 03:31:53;;;;;;;36.35;15.15;;;;;;;-145.45;100.00;62759.84;5251391;28;20394;-92
2021/12/12 03:34:30;;;;;;;37.50;15.25;;;;;;;-145.45;100.00;62759.84;5250204;28;20068;-92
2021/12/12 03:37:08;;;;;;;40.20;15.68;;;;;;;-145.45;100.00;62759.84;5263633;28;20036;-91
2021/12/12 03:39:41;;;;;;;34.60;15.10;;;;;;;-145.45;100.00;62759.84;5262586;28;20414;-91
2021/12/12 03:42:18;;;;;;;37.30;16.90;;;;;;;-145.45;100.00;62759.84;5264462;28;20429;-92
2021/12/12 03:44:50;;;;;;;;;;;;;;;-145.45;100.00;62759.84;5263041;28;20030;-91
2021/12/12 03:47:34;;;;;;;38.30;17.63;;;;;;;-145.45;100.00;62759.84;5252894;28;20325;-91
2021/12/12 03:50:16;;;;;;;44.10;18.95;;;;;;;-145.45;100.00;62759.84;5262273;28;20037;-92
2021/12/12 03:52:48;;;;;;;40.88;18.80;;;;;;;-145.45;100.00;62759.84;5244789;28;20048;-92
2021/12/12 03:55:21;;;;;;;40.75;19.33;;;;;;;-145.45;100.00;62759.84;5263208;28;20095;-91
2021/12/12 03:57:53;;;;;;;36.70;18.20;;;;;;;-145.45;100.00;62759.84;5263597;28;20382;-92
2021/12/12 04:00:29;;;;;;;36.90;18.83;;;;;;;-145.45;100.00;62759.84;5263775;28;20032;-92
2021/12/12 04:03:01;;;;;;;39.30;20.13;;;;;;;-145.45;100.00;62759.84;5262652;28;20022;-92
2021/12/12 04:05:33;;;;;;;44.95;21.10;;;;;;;-145.45;100.00;62759.84;5263734;28;20498;-92
2021/12/12 04:08:05;;;;;;;38.58;20.77;;;;;;;-145.45;100.00;62759.84;5262770;28;20717;-92
2021/12/12 04:10:36;;;;;;;42.83;20.65;;;;;;;-145.45;100.00;62759.84;5262790;28;20171;-92
2021/12/12 04:13:08;;;;;;;41.70;21.30;;;;;;;-145.45;100.00;62759.84;5250429;28;20120;-92
2021/12/12 04:15:40;;;;;;;37.50;20.52;;;;;;;-145.45;100.00;62759.84;5262877;28;20053;-92
2021/12/12 04:18:11;;;;;;;34.88;20.05;;;;;;;-145.45;100.00;62759.84;5252259;28;20032;-92
2021/12/12 04:20:42;;;;;;;40.90;17.38;;;;;;;-145.45;100.00;62759.84;5258997;28;20037;-92
2021/12/12 04:23:17;;;;;;;28.88;16.02;;;;;;;-145.45;100.00;62759.84;5262726;28;20021;-92
2021/12/12 04:25:51;;;;;;;32.20;17.20;;;;;;;-145.45;100.00;62759.84;5246687;28;20036;-92
2021/12/12 04:28:23;;;;;;;33.05;15.75;;;;;;;-145.45;100.00;62759.84;5258341;28;20026;-92
2021/12/12 04:30:54;;;;;;;33.47;15.23;;;;;;;-145.45;100.00;62759.84;5261648;28;20084;-92
2021/12/12 04:33:26;;;;;;;27.15;16.25;;;;;;;-145.45;100.00;62759.84;5262626;28;20035;-91
2021/12/12 04:35:58;;;;;;;30.05;15.73;;;;;;;-145.45;100.00;62759.84;5258239;28;20053;-92
2021/12/12 04:38:29;;;;;;;31.42;16.77;;;;;;;-145.45;100.00;62759.84;5249508;28;20025;-92
2021/12/12 04:41:00;;;;;;;25.85;15.65;;;;;;;-145.45;100.00;62759.84;5262715;28;20083;-92
2021/12/12 04:43:35;;;;;;;33.78;16.55;;;;;;;-145.45;100.00;62759.84;5244572;28;22279;-92
2021/12/12 04:46:11;;;;;;;26.48;15.70;;;;;;;-145.45;100.00;62759.84;5261849;28;20041;-91
2021/12/12 04:51:46;;;;;;;22.65;16.73;;;;;;;-145.45;100.00;62759.84;5253148;28;20788;-90
2021/12/12 04:54:34;;;;;;;23.58;15.45;;;;;;;-145.45;100.00;62759.84;5245778;28;20402;-91
2021/12/12 04:57:22;;;;;;;29.98;16.73;;;;;;;-145.45;100.00;62759.84;5261145;28;20032;-91
2021/12/12 05:00:02;;;;;;;26.25;16.13;;;;;;;-145.45;100.00;62759.84;5252581;28;20021;-90
2021/12/12 05:02:54;;;;;;;26.38;15.73;;;;;;;-145.45;100.00;62759.84;5273070;28;20040;-90
2021/12/12 05:05:33;;;;;;;22.85;15.73;;;;;;;-145.45;100.00;62759.84;5260683;28;20034;-90
2021/12/12 05:08:10;;;;;;;24.38;15.13;;;;;;;-145.45;100.00;62759.84;5261404;28;20080;-90
2021/12/12 05:10:50;;;;;;;24.08;15.32;;;;;;;-145.45;100.00;62759.84;5260398;28;20163;-91
2021/12/12 05:13:27;;;;;;;27.05;16.17;;;;;;;-145.45;100.00;62759.84;5264629;28;20112;-90
2021/12/12 05:16:06;;;;;;;25.08;15.45;;;;;;;-145.45;100.00;62759.84;5261686;28;20025;-91
2021/12/12 05:18:48;;;;;;;27.80;17.33;;;;;;;-145.45;100.00;62759.84;5252327;28;21772;-91
2021/12/12 05:21:29;;;;;;;31.23;16.50;;;;;;;-145.45;100.00;62759.84;5273999;28;20075;-90
2021/12/12 05:24:06;;;;;;;24.38;15.30;;;;;;;-145.45;100.00;62759.84;5250314;28;20061;-90
2021/12/12 05:26:44;;;;;;;27.10;16.38;;;;;;;-145.45;100.00;62759.84;5259942;28;20120;-90
2021/12/12 05:29:29;;;;;;;26.35;16.13;;;;;;;-145.45;100.00;62759.84;5256358;28;20025;-90
2021/12/12 05:32:04;;;;;;;23.92;15.07;;;;;;;-145.45;100.00;62759.84;5261216;28;20026;-90
2021/12/12 05:34:39;;;;;;;26.75;15.18;;;;;;;-145.45;100.00;62759.84;5243090;28;20021;-90
2021/12/12 05:37:12;;;;;;;25.52;17.65;;;;;;;-145.45;100.00;62759.84;5250655;28;20021;-91
2021/12/12 05:39:44;;;;;;;22.40;16.35;;;;;;;-145.45;100.00;62759.84;5251048;28;20026;-90
2021/12/12 05:42:20;;;;;;;24.05;14.88;;;;;;;-145.45;100.00;62759.84;5269331;28;20036;-91
2021/12/12 05:44:53;;;;;;;23.67;14.30;;;;;;;-145.45;100.00;62759.84;5268276;28;20323;-91
2021/12/12 05:47:24;;;;;;;26.02;14.27;;;;;;;-145.45;100.00;62759.84;5277976;28;20512;-91
2021/12/12 05:49:57;;;;;;;24.13;14.93;;;;;;;-145.45;100.00;62759.84;5270569;28;20038;-91
2021/12/12 05:52:28;;;;;;;18.73;15.02;;;;;;;-145.45;100.00;62759.84;5253717;28;20065;-92
2021/12/12 05:55:05;;;;;;;22.45;14.75;;;;;;;-145.45;100.00;62759.84;5251395;28;20049;-91
2021/12/12 05:57:37;;;;;;;20.20;13.60;;;;;;;-145.45;100.00;62759.84;5250219;28;20046;-91
2021/12/12 06:00:16;;;;;;;21.15;13.95;;;;;;;-145.45;100.00;62759.84;5255887;28;20079;-92
2021/12/12 06:02:47;;;;;;;21.70;14.70;;;;;;;-145.45;100.00;62759.84;5271790;28;20075;-92
2021/12/12 06:05:19;;;;;;;19.85;14.88;;;;;;;-145.45;100.00;62759.84;5256519;28;20029;-92
2021/12/12 06:07:54;;;;;;;20.65;14.93;;;;;;;-145.45;100.00;62759.84;5264886;28;20068;-91
2021/12/12 06:10:32;;;;;;;23.00;16.45;;;;;;;-145.45;100.00;62759.84;5266625;28;20096;-92
2021/12/12 06:13:09;;;;;;;22.00;15.48;;;;;;;-145.45;100.00;62759.84;5250260;28;20061;-92
2021/12/12 06:15:50;;;;;;;26.15;17.20;;;;;;;-145.45;100.00;62759.84;5250823;28;20032;-92
2021/12/12 06:18:25;;;;;;;24.02;17.15;;;;;;;-145.45;100.00;62759.84;5254530;28;20039;-92
2021/12/12 06:21:01;;;;;;;28.58;16.70;;;;;;;-145.45;100.00;62759.84;5264348;28;20056;-91
2021/12/12 06:23:32;;;;;;;22.25;16.52;;;;;;;-145.45;100.00;62759.84;5246633;28;20033;-91
2021/12/12 06:26:07;;;;;;;25.40;17.92;;;;;;;-145.45;100.00;62759.84;5265006;28;20489;-91
2021/12/12 06:28:42;;;;;;;25.90;17.95;;;;;;;-145.45;100.00;62759.84;5263996;28;20028;-91
2021/12/12 06:31:14;;;;;;;29.88;16.05;;;;;;;-145.45;100.00;62759.84;5259015;28;20045;-91
2021/12/12 06:33:46;;;;;;;28.17;17.50;;;;;;;-145.45;100.00;62759.84;5252101;28;20014;-92
2021/12/12 06:36:17;;;;;;;24.52;17.45;;;;;;;-145.45;100.00;62759.84;5246861;28;20071;-92
2021/12/12 06:38:52;;;;;;;25.90;16.92;;;;;;;-145.45;100.00;62759.84;5263477;28;20030;-90
2021/12/12 06:41:29;;;;;;;19.63;15.27;;;;;;;-145.45;100.00;62759.84;5245717;28;20041;-90
2021/12/12 06:44:06;;;;;;;23.92;16.75;;;;;;;-145.45;100.00;62759.84;5263985;28;20661;-92
2021/12/12 06:46:40;;;;;;;22.45;16.08;;;;;;;-145.45;100.00;62759.84;5247876;28;20112;-95
2021/12/12 06:49:16;;;;;;;25.67;18.33;;;;;;;-145.45;100.00;62759.84;5258465;28;20108;-93
2021/12/12 06:51:58;;;;;;;28.63;18.73;;;;;;;-145.45;100.00;62759.84;5246197;28;20120;-90
2021/12/12 06:54:34;;;;;;;22.88;17.30;;;;;;;-145.45;100.00;62759.84;5253929;28;20017;-90
2021/12/12 06:57:15;;;;;;;24.08;18.33;;;;;;;-145.45;100.00;62759.84;5244596;28;20029;-92
2021/12/12 06:59:49;;;;;;;27.55;18.48;;;;;;;-145.45;100.00;62759.84;5264104;28;20045;-93
2021/12/12 07:02:33;;;;;;;23.10;15.88;;;;;;;-145.45;100.00;62759.84;5264722;28;20383;-91
2021/12/12 07:05:11;;;;;;;29.45;20.65;;;;;;;-145.45;100.00;62759.84;5242002;28;20160;-92
2021/12/12 07:07:45;;;;;;;31.42;18.92;;;;;;;-145.45;100.00;62759.84;5266377;28;20065;-92
2021/12/12 07:10:21;;;;;;;26.48;20.40;;;;;;;-145.45;100.00;62759.84;5268725;28;20030;-92
2021/12/12 07:12:56;;;;;;;25.15;18.05;;;;;;;-145.45;100.00;62759.84;5272527;28;20029;-93
2021/12/12 07:15:36;;;;;;;29.05;19.58;;;;;;;-145.45;100.00;62759.84;5269476;28;20037;-92
2021/12/12 07:18:12;;;;;;;26.92;20.02;;;;;;;-145.45;100.00;62759.84;5268281;28;20041;-92
2021/12/12 07:20:51;;;;;;;27.23;19.25;;;;;;;-145.45;100.00;62759.84;5267206;28;20056;-92
2021/12/12 07:23:23;;;;;;;27.55;21.02;;;;;;;-145.45;100.00;62759.84;5264315;28;20061;-92
2021/12/12 07:26:07;;;;;;;29.20;20.05;;;;;;;-145.45;100.00;62759.84;5264869;28;20026;-91
2021/12/12 07:28:41;;;;;;;35.63;20.75;;;;;;;-145.45;100.00;62759.84;5245753;28;20425;-92
2021/12/12 07:31:18;;;;;;;33.13;21.92;;;;;;;-145.45;100.00;62759.84;5263621;28;20329;-93
2021/12/12 07:33:55;;;;;;;30.27;20.38;;;;;;;-145.45;100.00;62759.84;5245357;28;20112;-93
2021/12/12 07:36:30;;;;;;;28.70;20.33;;;;;;;-145.45;100.00;62759.84;5263960;28;20040;-93
2021/12/12 07:39:10;;;;;;;28.30;21.65;;;;;;;-145.45;100.00;62759.84;5264372;28;20860;-93
2021/12/12 07:41:43;;;;;;;27.50;19.55;;;;;;;-145.45;100.00;62759.84;5245661;28;20125;-93
2021/12/12 07:44:17;;;;;;;31.55;22.00;;;;;;;-145.45;100.00;62759.84;5246084;28;20032;-93
2021/12/12 07:46:53;;;;;;;31.23;20.38;;;;;;;-145.45;100.00;62759.84;5268164;28;20029;-92
2021/12/12 07:49:41;;;;;;;32.47;21.75;;;;;;;-145.45;100.00;62759.84;5245420;28;20375;-93
2021/12/12 07:52:16;;;;;;;31.15;19.20;;;;;;;-145.45;100.00;62759.84;5262855;28;20097;-93
2021/12/12 07:54:50;;;;;;;37.15;22.77;;;;;;;-145.45;100.00;62759.84;5263626;28;20025;-93
2021/12/12 07:57:27;;;;;;;31.92;21.20;;;;;;;-145.45;100.00;62759.84;5245645;28;20041;-92
2021/12/12 08:00:00;;;;;;;37.42;24.15;;;;;;;-145.45;100.00;62759.84;5263562;28;20036;-93
2021/12/12 08:02:31;;;;;;;33.80;22.38;;;;;;;-145.45;100.00;62759.84;5245345;28;20470;-93
2021/12/12 08:05:04;;;;;;;37.13;21.75;;;;;;;-145.45;100.00;62759.84;5263340;28;20052;-92
2021/12/12 08:07:38;;;;;;;34.17;20.65;;;;;;;-145.45;100.00;62759.84;5245111;28;20089;-92
2021/12/12 08:10:12;;;;;;;35.58;21.80;;;;;;;-145.45;100.00;62759.84;5244900;28;20028;-93
2021/12/12 08:12:45;;;;;;;34.97;21.52;;;;;;;-145.45;100.00;62759.84;5262699;28;20595;-92
2021/12/12 08:15:17;;;;;;;35.13;21.58;;;;;;;-145.45;100.00;62759.84;5245434;28;20022;-92
2021/12/12 08:18:00;;;;;;;41.40;24.10;;;;;;;-145.45;100.00;62759.84;5262744;28;20025;-92
2021/12/12 08:20:35;;;;;;;43.05;23.15;;;;;;;-145.45;100.00;62759.84;5244497;28;20021;-92
2021/12/12 08:23:10;;;;;;;38.47;22.05;;;;;;;-145.45;100.00;62759.84;5244820;28;20041;-92
2021/12/12 08:25:45;;;;;;;44.92;23.20;;;;;;;-145.45;100.00;62759.84;5262031;28;20040;-93
2021/12/12 08:28:19;;;;;;;43.35;22.55;;;;;;;-145.45;100.00;62759.84;5246596;28;20028;-92
2021/12/12 08:31:08;;;;;;;41.22;24.83;;;;;;;-145.45;100.00;62759.84;5257552;28;20021;-93
2021/12/12 08:34:03;;;;;;;36.88;22.90;;;;;;;-145.45;100.00;62759.84;5286088;28;20148;-93
2021/12/12 08:36:37;;;;;;;42.47;23.33;;;;;;;-145.45;100.00;62759.84;5272494;28;20033;-91
2021/12/12 08:39:10;;;;;;;42.90;24.08;;;;;;;-145.45;100.00;62759.84;5272122;28;20037;-91
2021/12/12 08:41:45;;;;;;;37.38;23.70;;;;;;;-145.45;100.00;62759.84;5271842;28;20037;-92
2021/12/12 08:44:18;;;;;;;41.63;24.60;;;;;;;-145.45;100.00;62759.84;5292219;28;20037;-92
2021/12/12 08:46:53;;;;;;;39.15;21.70;;;;;;;-145.45;100.00;62759.84;5296364;28;20016;-92
2021/12/12 08:49:33;;;;;;;42.05;23.60;;;;;;;-145.45;100.00;62759.84;5287204;28;20033;-92
2021/12/12 08:52:20;;;;;;;40.72;23.25;;;;;;;-145.45;100.00;62759.84;5286293;28;20033;-92
2021/12/12 08:54:57;;;;;;;41.72;23.30;;;;;;;-145.45;100.00;62759.84;5261173;28;20017;-93
2021/12/12 08:57:46;;;;;;;45.33;26.42;;;;;;;-145.45;100.00;62759.84;5259735;28;20728;-92
2021/12/12 09:00:21;;;;;;;39.55;22.95;;;;;;;-145.45;100.00;62759.84;5261097;28;20033;-90
2021/12/12 09:03:01;;;;;;;41.10;23.25;;;;;;;-145.45;100.00;62759.84;5263583;28;20017;-92
2021/12/12 09:05:50;;;;;;;45.90;22.98;;;;;;;-145.45;100.00;62759.84;5245027;28;20410;-92
2021/12/12 09:08:44;;;;;;;44.13;22.63;;;;;;;-145.45;100.00;62759.84;5244473;28;20049;-92
2021/12/12 09:11:30;;;;;;;46.38;27.23;;;;;;;-145.45;100.00;62759.84;5254648;28;20049;-90
2021/12/12 09:14:18;;;;;;;41.13;23.95;;;;;;;-145.45;100.00;62759.84;5270679;28;20096;-91
2021/12/12 09:17:17;;;;;;;44.97;22.75;;;;;;;-145.45;100.00;62759.84;5266415;28;20069;-91
2021/12/12 09:20:14;;;;;;;44.53;24.88;;;;;;;-145.45;100.00;62759.84;5252735;28;20389;-90
2021/12/12 09:22:58;;;;;;;45.03;25.05;;;;;;;-145.45;100.00;62759.84;5257895;28;20014;-92
2021/12/12 09:25:50;;;;;;;41.35;22.90;;;;;;;-145.45;100.00;62759.84;5247182;28;20040;-89
2021/12/12 09:28:38;;;;;;;43.60;22.42;;;;;;;-145.45;100.00;62759.84;5232387;28;20093;-93
2021/12/12 09:31:15;;;;;;;40.13;22.88;;;;;;;-145.45;100.00;62759.84;5255310;28;20036;-92
2021/12/12 09:33:49;;;;;;;42.85;22.23;;;;;;;-145.45;100.00;62759.84;5263837;28;20121;-92
2021/12/12 09:36:48;;;;;;;43.47;21.77;;;;;;;-145.45;100.00;62759.84;5264326;28;20920;-91
2021/12/12 09:39:32;;;;;;;44.67;23.23;;;;;;;-145.45;100.00;62759.84;5266478;28;20021;-91
2021/12/12 09:42:31;;;;;;;41.17;22.58;;;;;;;-145.45;100.00;62759.84;5266507;28;20030;-91
2021/12/12 09:45:30;;;;;;;39.20;21.42;;;;;;;-145.45;100.00;62759.84;5252628;28;20029;-91
2021/12/12 09:51:15;;;;;;;38.53;21.48;;;;;;;-145.45;100.00;62759.84;5267574;28;20041;-91
2021/12/12 09:54:15;;;;;;;40.70;20.70;;;;;;;-145.45;100.00;62759.84;5258089;28;20068;-92
2021/12/12 09:57:19;;;;;;;37.60;20.63;;;;;;;-145.45;100.00;62759.84;5265991;28;20028;-93
2021/12/12 10:00:12;;;;;;;40.13;18.98;;;;;;;-145.45;100.00;62759.84;5266985;28;20047;-93
2021/12/12 10:02:49;;;;;;;34.75;19.33;;;;;;;-145.45;100.00;62759.84;5248459;28;20114;-92
2021/12/12 10:05:51;;;;;;;39.10;20.48;;;;;;;-145.45;100.00;62759.84;5247390;28;24870;-93
2021/12/12 10:08:43;;;;;;;37.92;18.95;;;;;;;-145.45;100.00;62759.84;5265299;28;20050;-91
2021/12/12 10:11:38;;;;;;;44.65;23.73;;;;;;;-145.45;100.00;62759.84;5247559;28;20033;-92
2021/12/12 10:14:43;;;;;;;38.30;19.52;;;;;;;-145.45;100.00;62759.84;5267357;28;20035;-92
2021/12/12 10:17:42;;;;;;;35.95;18.92;;;;;;;-145.45;100.00;62759.84;5265780;28;20022;-92
2021/12/12 10:20:25;;;;;;;37.42;19.65;;;;;;;-145.45;100.00;62759.84;5247482;28;20030;-91
2021/12/12 10:23:15;;;;;;;36.92;20.73;;;;;;;-145.45;100.00;62759.84;5238936;28;20026;-92
2021/12/12 10:25:53;;;;;;;33.10;19.05;;;;;;;-145.45;100.00;62759.84;5252473;28;20093;-92
2021/12/12 10:28:49;;;;;;;36.53;18.75;;;;;;;-145.45;100.00;62759.84;5265954;28;20025;-92
2021/12/12 10:31:32;;;;;;;32.92;19.17;;;;;;;-145.45;100.00;62759.84;5263857;28;20112;-91
2021/12/12 10:34:32;;;;;;;39.30;20.10;;;;;;;-145.45;100.00;62759.84;5263881;28;20101;-91
2021/12/12 10:37:06;;;;;;;32.70;19.02;;;;;;;-145.45;100.00;62759.84;5264319;28;20092;-92
2021/12/12 10:39:45;;;;;;;34.97;19.13;;;;;;;-145.45;100.00;62759.84;5246440;28;20047;-91
2021/12/12 10:42:23;;;;;;;40.33;22.38;;;;;;;-145.45;100.00;62759.84;5257503;28;20036;-93
2021/12/12 10:45:01;;;;;;;35.10;19.58;;;;;;;-145.45;100.00;62759.84;5266825;28;20029;-93
2021/12/12 10:47:32;;;;;;;36.28;19.40;;;;;;;-145.45;100.00;62759.84;5247061;28;20021;-94
2021/12/12 10:50:18;;;;;;;37.80;19.75;;;;;;;-145.45;100.00;62759.84;5248549;28;20033;-95
2021/12/12 10:53:16;;;;;;;38.97;21.58;;;;;;;-145.45;100.00;62759.84;5265228;28;20029;-94
2021/12/12 10:56:06;;;;;;;;;;;;;;;-145.45;100.00;62759.84;5239014;28;20402;-95
2021/12/12 10:58:39;;;;;;;39.13;21.50;;;;;;;-145.45;100.00;62759.84;5247979;28;19975;-95
2021/12/12 11:01:19;;;;;;;37.53;20.17;;;;;;;-145.45;100.00;62759.84;5248464;28;20099;-94
2021/12/12 11:04:03;;;;;;;38.25;20.63;;;;;;;-145.45;100.00;62759.84;5246358;28;20076;-92
2021/12/12 11:06:38;;;;;;;39.40;21.48;;;;;;;-145.45;100.00;62759.84;5246209;28;20014;-92
2021/12/12 11:09:26;;;;;;;33.70;21.98;;;;;;;-145.45;100.00;62759.84;5247454;28;20202;-96
2021/12/12 11:12:06;;;;;;;37.75;22.67;;;;;;;-145.45;100.00;62759.84;5265586;28;20029;-93
2021/12/12 11:14:55;;;;;;;37.65;22.55;;;;;;;-145.45;100.00;62759.84;5265628;28;20029;-94
2021/12/12 11:17:31;;;;;;;31.55;21.77;;;;;;;-145.45;100.00;62759.84;5247424;28;20078;-94
2021/12/12 11:20:17;;;;;;;36.85;20.33;;;;;;;-145.45;100.00;62759.84;5266164;28;20072;-95
2021/12/12 11:22:59;;;;;;;35.17;20.77;;;;;;;-145.45;100.00;62759.84;5265624;28;20026;-94
2021/12/12 11:25:37;;;;;;;31.23;21.35;;;;;;;-145.45;100.00;62759.84;5248544;28;20257;-94
2021/12/12 11:28:17;;;;;;;29.40;18.98;;;;;;;-145.45;100.00;62759.84;5249394;28;20026;-93
2021/12/12 11:31:06;;;;;;;29.35;19.20;;;;;;;-145.45;100.00;62759.84;5268952;28;20021;-92
2021/12/12 11:33:43;;;;;;;25.30;19.63;;;;;;;-145.45;100.00;62759.84;5289484;28;20021;-93
2021/12/12 11:36:27;;;;;;;28.60;18.65;;;;;;;-145.45;100.00;62759.84;5291151;28;20041;-90
2021/12/12 11:39:26;;;;;;;26.23;18.00;;;;;;;-145.45;100.00;62759.84;5271739;28;20028;-93
2021/12/12 11:42:14;;;;;;;29.45;20.10;;;;;;;-145.45;100.00;62759.84;5287340;28;20102;-90
2021/12/12 11:45:14;;;;;;;29.63;18.90;;;;;;;-145.45;100.00;62759.84;5249315;28;20072;-91
2021/12/12 11:48:15;;;;;;;25.70;17.25;;;;;;;-145.45;100.00;62759.84;5248213;28;20446;-92
2021/12/12 11:51:14;;;;;;;28.63;18.05;;;;;;;-145.45;100.00;62759.84;5260660;28;20037;-90
2021/12/12 11:53:49;;;;;;;24.98;17.92;;;;;;;-145.45;100.00;62759.84;5278817;28;20021;-91
2021/12/12 11:56:47;;;;;;;25.10;16.98;;;;;;;-145.45;100.00;62759.84;5282323;28;20028;-90
2021/12/12 11:59:49;;;;;;;20.40;15.77;;;;;;;-145.45;100.00;62759.84;5264172;28;20367;-90
2021/12/12 12:02:31;;;;;;;19.88;15.88;;;;;;;-145.45;100.00;62759.84;5266284;28;20355;-91
2021/12/12 12:05:08;;;;;;;19.15;15.35;;;;;;;-145.45;100.00;62759.84;5246228;28;29778;-90
2021/12/12 12:08:00;;;;;;;20.60;16.60;;;;;;;-145.45;100.00;62759.84;5244525;28;20049;-90
2021/12/12 12:10:51;;;;;;;22.52;14.90;;;;;;;-145.45;100.00;62759.84;5263593;28;20551;-89